sensor_id;sensor_type;location;lat;lon;timestamp;P1;durP1;ratioP1;P2;durP2;ratioP2
68858;SDS011;55864;49.238;8.092;2022-08-14T00:01:32;7.70;;;3.10;;
68858;SDS011;55864;49.238;8.092;2022-08-14T00:03:32;7.13;;;3.58;;
68858;SDS011;55864;49.238;8.092;2022-08-14T00:05:33;6.25;;;3.70;;
68858;SDS011;55864;49.238;8.092;2022-08-14T00:07:34;6.72;;;3.17;;
68858;SDS011;55864;49.238;8.092;2022-08-14T00:09:35;7.72;;;3.72;;
68858;SDS011;55864;49.238;8.092;2022-08-14T00:11:36;6.97;;;3.60;;
68858;SDS011;55864;49.238;8.092;2022-08-14T00:13:36;5.95;;;3.03;;
68858;SDS011;55864;49.238;8.092;2022-08-14T00:15:39;7.50;;;3.53;;
68858;SDS011;55864;49.238;8.092;2022-08-14T00:17:45;5.93;;;3.47;;
68858;SDS011;55864;49.238;8.092;2022-08-14T00:21:47;6.80;;;3.55;;
68858;SDS011;55864;49.238;8.092;2022-08-14T00:23:48;7.68;;;3.40;;
68858;SDS011;55864;49.238;8.092;2022-08-14T00:25:50;7.10;;;3.45;;
68858;SDS011;55864;49.238;8.092;2022-08-14T00:27:52;5.85;;;3.67;;
68858;SDS011;55864;49.238;8.092;2022-08-14T00:29:53;6.03;;;3.63;;
68858;SDS011;55864;49.238;8.092;2022-08-14T00:31:54;11.30;;;3.67;;
68858;SDS011;55864;49.238;8.092;2022-08-14T00:33:56;7.43;;;3.35;;
68858;SDS011;55864;49.238;8.092;2022-08-14T00:35:56;8.25;;;3.85;;
68858;SDS011;55864;49.238;8.092;2022-08-14T00:37:57;6.38;;;3.60;;
68858;SDS011;55864;49.238;8.092;2022-08-14T00:39:59;6.90;;;3.90;;
68858;SDS011;55864;49.238;8.092;2022-08-14T00:42:01;7.65;;;4.07;;
68858;SDS011;55864;49.238;8.092;2022-08-14T00:44:02;7.72;;;4.05;;
68858;SDS011;55864;49.238;8.092;2022-08-14T00:46:03;6.40;;;3.47;;
68858;SDS011;55864;49.238;8.092;2022-08-14T00:48:08;7.32;;;3.67;;
68858;SDS011;55864;49.238;8.092;2022-08-14T00:50:12;6.68;;;4.00;;
68858;SDS011;55864;49.238;8.092;2022-08-14T00:52:15;8.20;;;3.95;;
68858;SDS011;55864;49.238;8.092;2022-08-14T00:54:16;8.13;;;4.00;;
68858;SDS011;55864;49.238;8.092;2022-08-14T00:56:17;9.07;;;4.00;;
68858;SDS011;55864;49.238;8.092;2022-08-14T00:58:17;6.65;;;3.80;;
68858;SDS011;55864;49.238;8.092;2022-08-14T01:00:18;7.60;;;3.85;;
68858;SDS011;55864;49.238;8.092;2022-08-14T01:02:19;8.38;;;3.78;;
68858;SDS011;55864;49.238;8.092;2022-08-14T01:04:20;8.57;;;3.47;;
68858;SDS011;55864;49.238;8.092;2022-08-14T01:06:23;6.85;;;4.05;;
68858;SDS011;55864;49.238;8.092;2022-08-14T01:08:26;7.13;;;3.83;;
68858;SDS011;55864;49.238;8.092;2022-08-14T01:10:29;7.72;;;4.00;;
68858;SDS011;55864;49.238;8.092;2022-08-14T01:12:30;7.50;;;3.85;;
68858;SDS011;55864;49.238;8.092;2022-08-14T01:14:31;8.57;;;4.38;;
68858;SDS011;55864;49.238;8.092;2022-08-14T01:16:32;9.45;;;4.15;;
68858;SDS011;55864;49.238;8.092;2022-08-14T01:18:33;7.10;;;3.70;;
68858;SDS011;55864;49.238;8.092;2022-08-14T01:20:34;6.57;;;4.05;;
68858;SDS011;55864;49.238;8.092;2022-08-14T01:22:36;7.70;;;4.15;;
68858;SDS011;55864;49.238;8.092;2022-08-14T01:24:36;6.80;;;3.92;;
68858;SDS011;55864;49.238;8.092;2022-08-14T01:26:37;6.88;;;3.95;;
68858;SDS011;55864;49.238;8.092;2022-08-14T01:28:38;6.75;;;4.10;;
68858;SDS011;55864;49.238;8.092;2022-08-14T01:30:39;6.68;;;4.15;;
68858;SDS011;55864;49.238;8.092;2022-08-14T01:32:40;6.82;;;3.80;;
68858;SDS011;55864;49.238;8.092;2022-08-14T01:34:41;9.38;;;4.20;;
68858;SDS011;55864;49.238;8.092;2022-08-14T01:36:42;6.90;;;4.25;;
68858;SDS011;55864;49.238;8.092;2022-08-14T01:38:45;8.13;;;4.25;;
68858;SDS011;55864;49.238;8.092;2022-08-14T01:40:46;6.93;;;4.03;;
68858;SDS011;55864;49.238;8.092;2022-08-14T01:42:47;6.40;;;3.90;;
68858;SDS011;55864;49.238;8.092;2022-08-14T01:44:48;8.07;;;4.40;;
68858;SDS011;55864;49.238;8.092;2022-08-14T01:46:52;7.03;;;3.92;;
68858;SDS011;55864;49.238;8.092;2022-08-14T01:49:11;7.32;;;4.38;;
68858;SDS011;55864;49.238;8.092;2022-08-14T01:51:25;7.22;;;4.78;;
68858;SDS011;55864;49.238;8.092;2022-08-14T01:54:06;7.85;;;4.50;;
68858;SDS011;55864;49.238;8.092;2022-08-14T01:59:26;7.72;;;4.22;;
68858;SDS011;55864;49.238;8.092;2022-08-14T02:01:36;7.55;;;4.30;;
68858;SDS011;55864;49.238;8.092;2022-08-14T02:03:43;9.43;;;4.30;;
68858;SDS011;55864;49.238;8.092;2022-08-14T02:05:53;9.47;;;4.27;;
68858;SDS011;55864;49.238;8.092;2022-08-14T02:08:04;8.10;;;4.30;;
68858;SDS011;55864;49.238;8.092;2022-08-14T02:10:13;7.95;;;4.28;;
68858;SDS011;55864;49.238;8.092;2022-08-14T02:12:17;7.88;;;4.10;;
68858;SDS011;55864;49.238;8.092;2022-08-14T02:14:26;6.88;;;4.32;;
68858;SDS011;55864;49.238;8.092;2022-08-14T02:16:35;7.03;;;4.38;;
68858;SDS011;55864;49.238;8.092;2022-08-14T02:18:37;9.07;;;4.20;;
68858;SDS011;55864;49.238;8.092;2022-08-14T02:20:38;7.30;;;3.95;;
68858;SDS011;55864;49.238;8.092;2022-08-14T02:22:38;7.25;;;4.53;;
68858;SDS011;55864;49.238;8.092;2022-08-14T02:24:39;8.68;;;4.40;;
68858;SDS011;55864;49.238;8.092;2022-08-14T02:26:43;7.30;;;4.40;;
68858;SDS011;55864;49.238;8.092;2022-08-14T02:28:44;7.85;;;4.63;;
68858;SDS011;55864;49.238;8.092;2022-08-14T02:30:46;7.97;;;4.37;;
68858;SDS011;55864;49.238;8.092;2022-08-14T02:32:46;10.88;;;4.60;;
68858;SDS011;55864;49.238;8.092;2022-08-14T02:34:47;9.85;;;4.93;;
68858;SDS011;55864;49.238;8.092;2022-08-14T02:36:48;7.25;;;4.55;;
68858;SDS011;55864;49.238;8.092;2022-08-14T02:38:51;7.72;;;4.28;;
68858;SDS011;55864;49.238;8.092;2022-08-14T02:40:52;7.80;;;4.90;;
68858;SDS011;55864;49.238;8.092;2022-08-14T02:42:54;8.30;;;4.50;;
68858;SDS011;55864;49.238;8.092;2022-08-14T02:44:54;6.78;;;4.20;;
68858;SDS011;55864;49.238;8.092;2022-08-14T02:46:55;7.10;;;4.45;;
68858;SDS011;55864;49.238;8.092;2022-08-14T02:48:56;7.90;;;4.53;;
68858;SDS011;55864;49.238;8.092;2022-08-14T02:50:57;10.13;;;4.40;;
68858;SDS011;55864;49.238;8.092;2022-08-14T02:52:57;8.10;;;4.50;;
68858;SDS011;55864;49.238;8.092;2022-08-14T02:54:58;8.77;;;4.53;;
68858;SDS011;55864;49.238;8.092;2022-08-14T02:56:59;8.43;;;4.65;;
68858;SDS011;55864;49.238;8.092;2022-08-14T02:59:03;14.02;;;4.97;;
68858;SDS011;55864;49.238;8.092;2022-08-14T03:01:06;6.93;;;4.32;;
68858;SDS011;55864;49.238;8.092;2022-08-14T03:03:08;7.05;;;4.75;;
68858;SDS011;55864;49.238;8.092;2022-08-14T03:05:08;8.30;;;4.47;;
68858;SDS011;55864;49.238;8.092;2022-08-14T03:07:09;8.23;;;4.85;;
68858;SDS011;55864;49.238;8.092;2022-08-14T03:09:09;7.32;;;4.25;;
68858;SDS011;55864;49.238;8.092;2022-08-14T03:11:11;8.70;;;4.57;;
68858;SDS011;55864;49.238;8.092;2022-08-14T03:13:12;7.35;;;4.63;;
68858;SDS011;55864;49.238;8.092;2022-08-14T03:15:14;8.45;;;4.85;;
68858;SDS011;55864;49.238;8.092;2022-08-14T03:17:15;9.13;;;4.55;;
68858;SDS011;55864;49.238;8.092;2022-08-14T03:19:16;9.23;;;4.78;;
68858;SDS011;55864;49.238;8.092;2022-08-14T03:21:17;8.82;;;4.50;;
68858;SDS011;55864;49.238;8.092;2022-08-14T03:23:18;7.00;;;4.82;;
68858;SDS011;55864;49.238;8.092;2022-08-14T03:25:19;9.70;;;4.97;;
68858;SDS011;55864;49.238;8.092;2022-08-14T03:27:20;7.82;;;4.75;;
68858;SDS011;55864;49.238;8.092;2022-08-14T03:29:20;7.35;;;4.13;;
68858;SDS011;55864;49.238;8.092;2022-08-14T03:31:22;7.53;;;4.70;;
68858;SDS011;55864;49.238;8.092;2022-08-14T03:33:23;8.82;;;4.63;;
68858;SDS011;55864;49.238;8.092;2022-08-14T03:35:24;8.77;;;4.97;;
68858;SDS011;55864;49.238;8.092;2022-08-14T03:37:24;9.60;;;4.55;;
68858;SDS011;55864;49.238;8.092;2022-08-14T03:39:25;7.35;;;4.80;;
68858;SDS011;55864;49.238;8.092;2022-08-14T03:41:26;8.05;;;4.82;;
68858;SDS011;55864;49.238;8.092;2022-08-14T03:43:27;7.65;;;4.60;;
68858;SDS011;55864;49.238;8.092;2022-08-14T03:45:28;7.65;;;4.75;;
68858;SDS011;55864;49.238;8.092;2022-08-14T03:47:37;9.32;;;4.60;;
68858;SDS011;55864;49.238;8.092;2022-08-14T03:49:39;8.32;;;4.70;;
68858;SDS011;55864;49.238;8.092;2022-08-14T03:51:40;8.35;;;4.20;;
68858;SDS011;55864;49.238;8.092;2022-08-14T03:53:41;8.65;;;5.05;;
68858;SDS011;55864;49.238;8.092;2022-08-14T03:55:43;7.40;;;4.70;;
68858;SDS011;55864;49.238;8.092;2022-08-14T03:57:44;8.48;;;4.93;;
68858;SDS011;55864;49.238;8.092;2022-08-14T03:59:44;7.93;;;4.80;;
68858;SDS011;55864;49.238;8.092;2022-08-14T04:01:45;7.80;;;5.20;;
68858;SDS011;55864;49.238;8.092;2022-08-14T04:03:47;8.55;;;5.35;;
68858;SDS011;55864;49.238;8.092;2022-08-14T04:07:49;8.48;;;4.63;;
68858;SDS011;55864;49.238;8.092;2022-08-14T04:09:50;8.90;;;5.18;;
68858;SDS011;55864;49.238;8.092;2022-08-14T04:11:50;7.65;;;4.85;;
68858;SDS011;55864;49.238;8.092;2022-08-14T04:13:51;8.15;;;5.65;;
68858;SDS011;55864;49.238;8.092;2022-08-14T04:15:51;8.45;;;5.13;;
68858;SDS011;55864;49.238;8.092;2022-08-14T04:17:52;8.45;;;5.05;;
68858;SDS011;55864;49.238;8.092;2022-08-14T04:19:54;7.60;;;4.82;;
68858;SDS011;55864;49.238;8.092;2022-08-14T04:21:54;9.18;;;4.93;;
68858;SDS011;55864;49.238;8.092;2022-08-14T04:23:56;10.52;;;5.00;;
68858;SDS011;55864;49.238;8.092;2022-08-14T04:25:57;8.30;;;5.43;;
68858;SDS011;55864;49.238;8.092;2022-08-14T04:27:58;7.80;;;5.22;;
68858;SDS011;55864;49.238;8.092;2022-08-14T04:29:59;7.85;;;5.47;;
68858;SDS011;55864;49.238;8.092;2022-08-14T04:31:59;8.77;;;4.85;;
68858;SDS011;55864;49.238;8.092;2022-08-14T04:34:00;8.63;;;5.13;;
68858;SDS011;55864;49.238;8.092;2022-08-14T04:36:02;7.57;;;5.07;;
68858;SDS011;55864;49.238;8.092;2022-08-14T04:38:04;7.68;;;5.25;;
68858;SDS011;55864;49.238;8.092;2022-08-14T04:40:06;8.60;;;5.20;;
68858;SDS011;55864;49.238;8.092;2022-08-14T04:42:07;9.18;;;5.30;;
68858;SDS011;55864;49.238;8.092;2022-08-14T04:44:08;8.55;;;5.22;;
68858;SDS011;55864;49.238;8.092;2022-08-14T04:46:09;11.95;;;5.32;;
68858;SDS011;55864;49.238;8.092;2022-08-14T04:48:12;9.82;;;5.95;;
68858;SDS011;55864;49.238;8.092;2022-08-14T04:50:14;9.85;;;5.78;;
68858;SDS011;55864;49.238;8.092;2022-08-14T04:52:16;9.23;;;5.35;;
68858;SDS011;55864;49.238;8.092;2022-08-14T04:54:16;8.88;;;5.68;;
68858;SDS011;55864;49.238;8.092;2022-08-14T04:56:17;16.25;;;6.15;;
68858;SDS011;55864;49.238;8.092;2022-08-14T04:58:19;9.85;;;6.18;;
68858;SDS011;55864;49.238;8.092;2022-08-14T05:00:21;8.25;;;5.65;;
68858;SDS011;55864;49.238;8.092;2022-08-14T05:02:22;13.27;;;5.50;;
68858;SDS011;55864;49.238;8.092;2022-08-14T05:04:22;9.07;;;6.13;;
68858;SDS011;55864;49.238;8.092;2022-08-14T05:06:23;9.07;;;5.78;;
68858;SDS011;55864;49.238;8.092;2022-08-14T05:08:25;12.18;;;5.25;;
68858;SDS011;55864;49.238;8.092;2022-08-14T05:10:26;9.75;;;6.38;;
68858;SDS011;55864;49.238;8.092;2022-08-14T05:12:27;9.38;;;5.43;;
68858;SDS011;55864;49.238;8.092;2022-08-14T05:14:27;8.75;;;5.75;;
68858;SDS011;55864;49.238;8.092;2022-08-14T05:16:28;8.23;;;5.55;;
68858;SDS011;55864;49.238;8.092;2022-08-14T05:18:29;9.15;;;5.90;;
68858;SDS011;55864;49.238;8.092;2022-08-14T05:20:31;8.45;;;5.63;;
68858;SDS011;55864;49.238;8.092;2022-08-14T05:22:32;8.25;;;5.10;;
68858;SDS011;55864;49.238;8.092;2022-08-14T05:24:33;10.13;;;5.32;;
68858;SDS011;55864;49.238;8.092;2022-08-14T05:26:34;13.77;;;6.38;;
68858;SDS011;55864;49.238;8.092;2022-08-14T05:28:35;8.70;;;5.70;;
68858;SDS011;55864;49.238;8.092;2022-08-14T05:30:35;9.02;;;5.90;;
68858;SDS011;55864;49.238;8.092;2022-08-14T05:32:36;10.25;;;6.18;;
68858;SDS011;55864;49.238;8.092;2022-08-14T05:34:37;8.75;;;5.82;;
68858;SDS011;55864;49.238;8.092;2022-08-14T05:36:37;9.18;;;6.20;;
68858;SDS011;55864;49.238;8.092;2022-08-14T05:38:39;9.30;;;5.78;;
68858;SDS011;55864;49.238;8.092;2022-08-14T05:40:43;9.68;;;6.03;;
68858;SDS011;55864;49.238;8.092;2022-08-14T05:42:44;8.10;;;5.57;;
68858;SDS011;55864;49.238;8.092;2022-08-14T05:44:44;9.52;;;5.85;;
68858;SDS011;55864;49.238;8.092;2022-08-14T05:46:45;8.13;;;5.40;;
68858;SDS011;55864;49.238;8.092;2022-08-14T05:48:46;8.32;;;5.57;;
68858;SDS011;55864;49.238;8.092;2022-08-14T05:50:47;8.52;;;5.60;;
68858;SDS011;55864;49.238;8.092;2022-08-14T05:52:47;8.75;;;5.45;;
68858;SDS011;55864;49.238;8.092;2022-08-14T05:54:49;9.43;;;5.80;;
68858;SDS011;55864;49.238;8.092;2022-08-14T05:56:51;8.55;;;5.32;;
68858;SDS011;55864;49.238;8.092;2022-08-14T05:58:52;8.93;;;5.47;;
68858;SDS011;55864;49.238;8.092;2022-08-14T06:00:53;8.25;;;4.90;;
68858;SDS011;55864;49.238;8.092;2022-08-14T06:02:54;8.07;;;5.20;;
68858;SDS011;55864;49.238;8.092;2022-08-14T06:04:54;8.10;;;5.07;;
68858;SDS011;55864;49.238;8.092;2022-08-14T06:06:55;9.90;;;5.55;;
68858;SDS011;55864;49.238;8.092;2022-08-14T06:08:55;8.20;;;5.10;;
68858;SDS011;55864;49.238;8.092;2022-08-14T06:10:57;7.63;;;5.20;;
68858;SDS011;55864;49.238;8.092;2022-08-14T06:13:00;8.10;;;4.80;;
68858;SDS011;55864;49.238;8.092;2022-08-14T06:15:01;7.78;;;5.03;;
68858;SDS011;55864;49.238;8.092;2022-08-14T06:17:01;8.45;;;4.88;;
68858;SDS011;55864;49.238;8.092;2022-08-14T06:19:02;7.95;;;5.10;;
68858;SDS011;55864;49.238;8.092;2022-08-14T06:21:03;9.88;;;5.45;;
68858;SDS011;55864;49.238;8.092;2022-08-14T06:23:04;7.55;;;4.88;;
68858;SDS011;55864;49.238;8.092;2022-08-14T06:25:05;8.10;;;5.25;;
68858;SDS011;55864;49.238;8.092;2022-08-14T06:27:07;12.27;;;5.18;;
68858;SDS011;55864;49.238;8.092;2022-08-14T06:29:09;9.30;;;5.15;;
68858;SDS011;55864;49.238;8.092;2022-08-14T06:31:09;8.38;;;4.90;;
68858;SDS011;55864;49.238;8.092;2022-08-14T06:33:12;10.68;;;5.65;;
68858;SDS011;55864;49.238;8.092;2022-08-14T06:35:17;9.85;;;5.40;;
68858;SDS011;55864;49.238;8.092;2022-08-14T06:37:18;8.95;;;5.18;;
68858;SDS011;55864;49.238;8.092;2022-08-14T06:39:18;9.35;;;5.13;;
68858;SDS011;55864;49.238;8.092;2022-08-14T06:41:19;9.93;;;5.90;;
68858;SDS011;55864;49.238;8.092;2022-08-14T06:43:19;8.60;;;5.05;;
68858;SDS011;55864;49.238;8.092;2022-08-14T06:45:22;7.88;;;5.40;;
68858;SDS011;55864;49.238;8.092;2022-08-14T06:47:23;7.30;;;4.88;;
68858;SDS011;55864;49.238;8.092;2022-08-14T06:49:24;8.45;;;5.22;;
68858;SDS011;55864;49.238;8.092;2022-08-14T06:51:25;8.57;;;5.28;;
68858;SDS011;55864;49.238;8.092;2022-08-14T06:53:26;8.77;;;5.38;;
68858;SDS011;55864;49.238;8.092;2022-08-14T06:55:26;11.52;;;5.20;;
68858;SDS011;55864;49.238;8.092;2022-08-14T06:57:33;8.50;;;5.43;;
68858;SDS011;55864;49.238;8.092;2022-08-14T06:59:35;8.30;;;5.50;;
68858;SDS011;55864;49.238;8.092;2022-08-14T07:01:37;9.07;;;5.30;;
68858;SDS011;55864;49.238;8.092;2022-08-14T07:03:37;9.77;;;5.60;;
68858;SDS011;55864;49.238;8.092;2022-08-14T07:05:38;8.23;;;5.40;;
68858;SDS011;55864;49.238;8.092;2022-08-14T07:07:39;9.57;;;5.53;;
68858;SDS011;55864;49.238;8.092;2022-08-14T07:09:40;11.77;;;5.03;;
68858;SDS011;55864;49.238;8.092;2022-08-14T07:11:41;8.55;;;5.35;;
68858;SDS011;55864;49.238;8.092;2022-08-14T07:13:41;10.23;;;5.78;;
68858;SDS011;55864;49.238;8.092;2022-08-14T07:15:42;11.15;;;5.40;;
68858;SDS011;55864;49.238;8.092;2022-08-14T07:17:45;10.15;;;5.55;;
68858;SDS011;55864;49.238;8.092;2022-08-14T07:19:46;9.23;;;5.72;;
68858;SDS011;55864;49.238;8.092;2022-08-14T07:21:46;10.25;;;5.55;;
68858;SDS011;55864;49.238;8.092;2022-08-14T07:23:47;7.57;;;5.05;;
68858;SDS011;55864;49.238;8.092;2022-08-14T07:25:48;8.52;;;5.00;;
68858;SDS011;55864;49.238;8.092;2022-08-14T07:27:49;8.70;;;5.40;;
68858;SDS011;55864;49.238;8.092;2022-08-14T07:29:50;8.10;;;5.22;;
68858;SDS011;55864;49.238;8.092;2022-08-14T07:31:51;9.35;;;6.00;;
68858;SDS011;55864;49.238;8.092;2022-08-14T07:33:53;9.15;;;5.30;;
68858;SDS011;55864;49.238;8.092;2022-08-14T07:35:54;8.63;;;6.13;;
68858;SDS011;55864;49.238;8.092;2022-08-14T07:37:56;8.88;;;6.00;;
68858;SDS011;55864;49.238;8.092;2022-08-14T07:39:57;8.10;;;5.90;;
68858;SDS011;55864;49.238;8.092;2022-08-14T07:41:57;10.13;;;6.10;;
68858;SDS011;55864;49.238;8.092;2022-08-14T07:43:58;10.30;;;7.13;;
68858;SDS011;55864;49.238;8.092;2022-08-14T07:46:07;10.52;;;6.15;;
68858;SDS011;55864;49.238;8.092;2022-08-14T07:48:08;9.43;;;6.10;;
68858;SDS011;55864;49.238;8.092;2022-08-14T07:50:14;10.07;;;5.80;;
68858;SDS011;55864;49.238;8.092;2022-08-14T07:52:15;8.02;;;5.40;;
68858;SDS011;55864;49.238;8.092;2022-08-14T07:54:16;9.02;;;6.05;;
68858;SDS011;55864;49.238;8.092;2022-08-14T07:56:17;8.70;;;6.03;;
68858;SDS011;55864;49.238;8.092;2022-08-14T07:58:18;11.02;;;6.18;;
68858;SDS011;55864;49.238;8.092;2022-08-14T08:00:19;9.15;;;5.63;;
68858;SDS011;55864;49.238;8.092;2022-08-14T08:02:21;10.48;;;6.32;;
68858;SDS011;55864;49.238;8.092;2022-08-14T08:04:23;10.52;;;6.15;;
68858;SDS011;55864;49.238;8.092;2022-08-14T08:06:29;10.48;;;6.13;;
68858;SDS011;55864;49.238;8.092;2022-08-14T08:08:30;10.65;;;6.50;;
68858;SDS011;55864;49.238;8.092;2022-08-14T08:10:32;10.00;;;6.60;;
68858;SDS011;55864;49.238;8.092;2022-08-14T08:12:33;8.88;;;5.68;;
68858;SDS011;55864;49.238;8.092;2022-08-14T08:14:34;9.00;;;6.72;;
68858;SDS011;55864;49.238;8.092;2022-08-14T08:16:36;10.75;;;6.45;;
68858;SDS011;55864;49.238;8.092;2022-08-14T08:18:37;9.32;;;6.20;;
68858;SDS011;55864;49.238;8.092;2022-08-14T08:20:40;9.73;;;6.68;;
68858;SDS011;55864;49.238;8.092;2022-08-14T08:22:43;11.43;;;6.47;;
68858;SDS011;55864;49.238;8.092;2022-08-14T08:24:44;12.90;;;7.00;;
68858;SDS011;55864;49.238;8.092;2022-08-14T08:26:44;10.63;;;6.43;;
68858;SDS011;55864;49.238;8.092;2022-08-14T08:28:54;10.05;;;6.40;;
68858;SDS011;55864;49.238;8.092;2022-08-14T08:30:56;11.23;;;6.50;;
68858;SDS011;55864;49.238;8.092;2022-08-14T08:32:59;17.13;;;8.00;;
68858;SDS011;55864;49.238;8.092;2022-08-14T08:35:01;10.95;;;6.95;;
68858;SDS011;55864;49.238;8.092;2022-08-14T08:37:01;10.45;;;6.50;;
68858;SDS011;55864;49.238;8.092;2022-08-14T08:39:03;11.88;;;6.53;;
68858;SDS011;55864;49.238;8.092;2022-08-14T08:41:04;10.82;;;6.55;;
68858;SDS011;55864;49.238;8.092;2022-08-14T08:43:05;8.02;;;5.68;;
68858;SDS011;55864;49.238;8.092;2022-08-14T08:45:07;8.77;;;6.15;;
68858;SDS011;55864;49.238;8.092;2022-08-14T08:47:08;9.70;;;6.47;;
68858;SDS011;55864;49.238;8.092;2022-08-14T08:49:09;8.52;;;6.00;;
68858;SDS011;55864;49.238;8.092;2022-08-14T08:51:18;9.85;;;6.07;;
68858;SDS011;55864;49.238;8.092;2022-08-14T08:53:21;9.55;;;5.80;;
68858;SDS011;55864;49.238;8.092;2022-08-14T08:55:27;10.38;;;5.70;;
68858;SDS011;55864;49.238;8.092;2022-08-14T08:57:32;8.52;;;5.40;;
68858;SDS011;55864;49.238;8.092;2022-08-14T08:59:33;9.70;;;5.72;;
68858;SDS011;55864;49.238;8.092;2022-08-14T09:01:34;20.42;;;6.75;;
68858;SDS011;55864;49.238;8.092;2022-08-14T09:03:34;11.20;;;6.10;;
68858;SDS011;55864;49.238;8.092;2022-08-14T09:05:36;10.38;;;5.78;;
68858;SDS011;55864;49.238;8.092;2022-08-14T09:09:38;9.88;;;6.20;;
68858;SDS011;55864;49.238;8.092;2022-08-14T09:11:40;9.20;;;5.97;;
68858;SDS011;55864;49.238;8.092;2022-08-14T09:13:41;9.25;;;5.85;;
68858;SDS011;55864;49.238;8.092;2022-08-14T09:15:42;10.05;;;5.68;;
68858;SDS011;55864;49.238;8.092;2022-08-14T09:17:43;8.38;;;5.50;;
68858;SDS011;55864;49.238;8.092;2022-08-14T09:19:44;8.23;;;5.80;;
68858;SDS011;55864;49.238;8.092;2022-08-14T09:21:46;9.25;;;5.15;;
68858;SDS011;55864;49.238;8.092;2022-08-14T09:23:47;8.93;;;5.35;;
68858;SDS011;55864;49.238;8.092;2022-08-14T09:25:49;9.30;;;5.95;;
68858;SDS011;55864;49.238;8.092;2022-08-14T09:27:51;9.00;;;5.80;;
68858;SDS011;55864;49.238;8.092;2022-08-14T09:29:52;8.73;;;5.37;;
68858;SDS011;55864;49.238;8.092;2022-08-14T09:31:54;8.45;;;4.85;;
68858;SDS011;55864;49.238;8.092;2022-08-14T09:34:00;8.40;;;4.60;;
68858;SDS011;55864;49.238;8.092;2022-08-14T09:36:22;9.02;;;4.20;;
68858;SDS011;55864;49.238;8.092;2022-08-14T09:38:32;6.75;;;4.53;;
68858;SDS011;55864;49.238;8.092;2022-08-14T09:40:45;8.82;;;5.03;;
68858;SDS011;55864;49.238;8.092;2022-08-14T09:42:56;9.18;;;5.25;;
68858;SDS011;55864;49.238;8.092;2022-08-14T09:45:09;9.77;;;4.80;;
68858;SDS011;55864;49.238;8.092;2022-08-14T09:47:13;6.60;;;4.40;;
68858;SDS011;55864;49.238;8.092;2022-08-14T09:49:14;6.80;;;4.38;;
68858;SDS011;55864;49.238;8.092;2022-08-14T09:51:19;7.57;;;4.35;;
68858;SDS011;55864;49.238;8.092;2022-08-14T09:53:38;8.85;;;4.60;;
68858;SDS011;55864;49.238;8.092;2022-08-14T09:55:39;7.95;;;4.95;;
68858;SDS011;55864;49.238;8.092;2022-08-14T09:57:40;7.03;;;4.55;;
68858;SDS011;55864;49.238;8.092;2022-08-14T09:59:43;9.30;;;4.45;;
68858;SDS011;55864;49.238;8.092;2022-08-14T10:01:46;6.57;;;3.90;;
68858;SDS011;55864;49.238;8.092;2022-08-14T10:03:48;6.65;;;4.43;;
68858;SDS011;55864;49.238;8.092;2022-08-14T10:05:50;8.80;;;4.13;;
68858;SDS011;55864;49.238;8.092;2022-08-14T10:07:50;7.53;;;3.95;;
68858;SDS011;55864;49.238;8.092;2022-08-14T10:09:51;8.35;;;4.45;;
68858;SDS011;55864;49.238;8.092;2022-08-14T10:11:52;10.20;;;4.28;;
68858;SDS011;55864;49.238;8.092;2022-08-14T10:13:56;7.63;;;3.97;;
68858;SDS011;55864;49.238;8.092;2022-08-14T10:16:00;9.85;;;4.10;;
68858;SDS011;55864;49.238;8.092;2022-08-14T10:18:05;6.85;;;3.72;;
68858;SDS011;55864;49.238;8.092;2022-08-14T10:20:08;6.60;;;3.50;;
68858;SDS011;55864;49.238;8.092;2022-08-14T10:22:08;7.75;;;3.90;;
68858;SDS011;55864;49.238;8.092;2022-08-14T10:24:09;10.15;;;4.00;;
68858;SDS011;55864;49.238;8.092;2022-08-14T10:26:13;6.57;;;3.88;;
68858;SDS011;55864;49.238;8.092;2022-08-14T10:28:14;8.10;;;3.80;;
68858;SDS011;55864;49.238;8.092;2022-08-14T10:30:17;9.00;;;3.60;;
68858;SDS011;55864;49.238;8.092;2022-08-14T10:32:19;6.25;;;3.92;;
68858;SDS011;55864;49.238;8.092;2022-08-14T10:34:20;6.10;;;3.90;;
68858;SDS011;55864;49.238;8.092;2022-08-14T10:36:24;6.90;;;3.55;;
68858;SDS011;55864;49.238;8.092;2022-08-14T10:38:26;6.28;;;3.60;;
68858;SDS011;55864;49.238;8.092;2022-08-14T10:40:28;7.63;;;4.05;;
68858;SDS011;55864;49.238;8.092;2022-08-14T10:42:34;8.18;;;3.95;;
68858;SDS011;55864;49.238;8.092;2022-08-14T10:44:36;6.38;;;3.70;;
68858;SDS011;55864;49.238;8.092;2022-08-14T10:48:41;7.03;;;3.78;;
68858;SDS011;55864;49.238;8.092;2022-08-14T10:50:54;7.00;;;3.40;;
68858;SDS011;55864;49.238;8.092;2022-08-14T10:52:55;6.32;;;3.58;;
68858;SDS011;55864;49.238;8.092;2022-08-14T10:55:04;8.00;;;3.53;;
68858;SDS011;55864;49.238;8.092;2022-08-14T10:57:11;8.10;;;3.75;;
68858;SDS011;55864;49.238;8.092;2022-08-14T10:59:16;6.22;;;3.58;;
68858;SDS011;55864;49.238;8.092;2022-08-14T11:01:17;5.25;;;3.40;;
68858;SDS011;55864;49.238;8.092;2022-08-14T11:03:36;6.25;;;3.67;;
68858;SDS011;55864;49.238;8.092;2022-08-14T11:05:40;6.15;;;3.50;;
68858;SDS011;55864;49.238;8.092;2022-08-14T11:07:53;9.93;;;3.90;;
68858;SDS011;55864;49.238;8.092;2022-08-14T11:09:55;6.20;;;3.50;;
68858;SDS011;55864;49.238;8.092;2022-08-14T11:13:57;5.65;;;3.42;;
68858;SDS011;55864;49.238;8.092;2022-08-14T11:15:58;8.20;;;3.38;;
68858;SDS011;55864;49.238;8.092;2022-08-14T11:18:00;6.43;;;3.72;;
68858;SDS011;55864;49.238;8.092;2022-08-14T11:20:01;6.47;;;3.92;;
68858;SDS011;55864;49.238;8.092;2022-08-14T11:22:05;7.25;;;3.60;;
68858;SDS011;55864;49.238;8.092;2022-08-14T11:24:06;5.38;;;3.03;;
68858;SDS011;55864;49.238;8.092;2022-08-14T11:26:10;6.90;;;3.45;;
68858;SDS011;55864;49.238;8.092;2022-08-14T11:28:12;5.45;;;3.65;;
68858;SDS011;55864;49.238;8.092;2022-08-14T11:30:15;7.80;;;4.10;;
68858;SDS011;55864;49.238;8.092;2022-08-14T11:32:17;6.25;;;3.60;;
68858;SDS011;55864;49.238;8.092;2022-08-14T11:34:18;6.93;;;3.65;;
68858;SDS011;55864;49.238;8.092;2022-08-14T11:36:20;5.22;;;3.20;;
68858;SDS011;55864;49.238;8.092;2022-08-14T11:38:23;7.60;;;3.20;;
68858;SDS011;55864;49.238;8.092;2022-08-14T11:40:25;5.88;;;3.33;;
68858;SDS011;55864;49.238;8.092;2022-08-14T11:42:28;6.22;;;3.03;;
68858;SDS011;55864;49.238;8.092;2022-08-14T11:44:29;5.47;;;3.03;;
68858;SDS011;55864;49.238;8.092;2022-08-14T11:46:29;6.97;;;3.22;;
68858;SDS011;55864;49.238;8.092;2022-08-14T11:48:30;5.07;;;2.90;;
68858;SDS011;55864;49.238;8.092;2022-08-14T11:50:31;6.75;;;2.90;;
68858;SDS011;55864;49.238;8.092;2022-08-14T11:52:33;7.30;;;3.28;;
68858;SDS011;55864;49.238;8.092;2022-08-14T11:54:36;5.50;;;2.92;;
68858;SDS011;55864;49.238;8.092;2022-08-14T11:56:37;7.88;;;3.25;;
68858;SDS011;55864;49.238;8.092;2022-08-14T11:58:39;5.45;;;2.95;;
68858;SDS011;55864;49.238;8.092;2022-08-14T12:00:46;5.60;;;2.60;;
68858;SDS011;55864;49.238;8.092;2022-08-14T12:02:48;7.05;;;3.08;;
68858;SDS011;55864;49.238;8.092;2022-08-14T12:04:51;6.13;;;2.95;;
68858;SDS011;55864;49.238;8.092;2022-08-14T12:06:52;7.05;;;2.85;;
68858;SDS011;55864;49.238;8.092;2022-08-14T12:08:54;5.13;;;2.90;;
68858;SDS011;55864;49.238;8.092;2022-08-14T12:10:57;5.97;;;2.72;;
68858;SDS011;55864;49.238;8.092;2022-08-14T12:12:57;5.78;;;2.80;;
68858;SDS011;55864;49.238;8.092;2022-08-14T12:14:58;5.13;;;2.80;;
68858;SDS011;55864;49.238;8.092;2022-08-14T12:17:00;6.13;;;2.88;;
68858;SDS011;55864;49.238;8.092;2022-08-14T12:19:01;6.40;;;3.03;;
68858;SDS011;55864;49.238;8.092;2022-08-14T12:21:11;7.00;;;2.88;;
68858;SDS011;55864;49.238;8.092;2022-08-14T12:23:19;8.35;;;2.72;;
68858;SDS011;55864;49.238;8.092;2022-08-14T12:25:21;5.95;;;3.33;;
68858;SDS011;55864;49.238;8.092;2022-08-14T12:27:23;8.90;;;4.28;;
68858;SDS011;55864;49.238;8.092;2022-08-14T12:29:34;6.05;;;3.33;;